Time;durP1;ratioP1;P1;durP2;ratioP2;P2;SDS_P1;SDS_P2;PMS_P1;PMS_P2;Temp;Humidity;BMP_temperature;BMP_pressure;BME280_temperature;BME280_humidity;BME280_pressure;Samples;Min_cycle;Max_cycle;Signal;HPM_P1;HPM_P2
2023/01/18 00:00:49;;;;;;;13.00;11.43;;;0.40;99.90;;;;;;6126458;23;20417;-74
2023/01/18 00:03:19;;;;;;;13.07;10.93;;;0.40;99.90;;;;;;6126438;23;20432;-74
2023/01/18 00:05:47;;;;;;;12.60;11.50;;;0.40;99.90;;;;;;6137876;23;20430;-74
2023/01/18 00:08:17;;;;;;;12.70;11.23;;;0.40;99.90;;;;;;6126397;23;20472;-74
2023/01/18 00:10:46;;;;;;;13.30;11.90;;;0.40;99.90;;;;;;6126358;23;20414;-74
2023/01/18 00:13:14;;;;;;;12.97;11.67;;;0.30;99.90;;;;;;6126394;23;20440;-75
2023/01/18 00:15:43;;;;;;;12.93;11.63;;;0.30;99.90;;;;;;6137987;23;20452;-74
2023/01/18 00:18:11;;;;;;;12.50;11.30;;;0.30;99.90;;;;;;6137684;23;20492;-74
2023/01/18 00:20:41;;;;;;;12.83;11.53;;;0.20;99.90;;;;;;6137691;23;20413;-75
2023/01/18 00:23:09;;;;;;;14.80;13.47;;;0.20;99.90;;;;;;6138057;23;20706;-74
2023/01/18 00:25:37;;;;;;;13.30;11.90;;;0.20;99.90;;;;;;6126065;23;20524;-74
2023/01/18 00:28:05;;;;;;;14.83;13.17;;;0.20;99.90;;;;;;6126297;23;20417;-74
2023/01/18 00:30:33;;;;;;;14.70;13.07;;;0.10;99.90;;;;;;6137539;23;20406;-74
2023/01/18 00:33:02;;;;;;;15.97;13.27;;;0.10;99.90;;;;;;6128074;23;20411;-74
2023/01/18 00:35:30;;;;;;;16.20;14.60;;;0.10;99.90;;;;;;6136903;23;20401;-74
2023/01/18 00:38:00;;;;;;;15.93;12.73;;;0.10;99.90;;;;;;6126135;23;20848;-74
2023/01/18 00:40:29;;;;;;;16.40;14.67;;;0.10;99.90;;;;;;6137508;23;20425;-75
2023/01/18 00:45:43;;;;;;;15.47;13.87;;;0.00;99.90;;;;;;6137368;23;20433;-74
2023/01/18 00:48:11;;;;;;;16.77;15.07;;;0.00;99.90;;;;;;6137463;23;20398;-74
2023/01/18 00:50:39;;;;;;;16.80;14.97;;;0.00;99.90;;;;;;6137290;23;20401;-74
2023/01/18 00:53:09;;;;;;;17.70;14.60;;;0.00;99.90;;;;;;6137352;23;20398;-74
2023/01/18 00:55:37;;;;;;;18.33;14.97;;;0.00;99.90;;;;;;6137777;23;20433;-74
2023/01/18 00:58:06;;;;;;;17.00;15.20;;;0.00;99.90;;;;;;6137249;23;20952;-74
2023/01/18 01:00:34;;;;;;;17.27;15.00;;;-0.10;99.90;;;;;;6125841;23;20421;-74
2023/01/18 01:03:02;;;;;;;16.60;14.77;;;-0.10;99.90;;;;;;6126122;23;20889;-74
2023/01/18 01:08:18;;;;;;;16.07;14.33;;;-0.10;99.90;;;;;;6137251;23;20378;-74
2023/01/18 01:10:48;;;;;;;19.47;16.00;;;-0.10;99.90;;;;;;6125780;23;20421;-74
2023/01/18 01:27:12;;;;;;;18.47;16.67;;;-0.20;99.90;;;;;;6125345;23;20870;-74
2023/01/18 01:29:40;;;;;;;16.87;15.13;;;-0.20;99.90;;;;;;6125533;23;20736;-74
2023/01/18 01:32:09;;;;;;;17.60;14.67;;;-0.20;99.90;;;;;;6125494;23;20410;-74
2023/01/18 01:34:39;;;;;;;18.00;16.10;;;-0.20;99.90;;;;;;6137226;23;20707;-74
2023/01/18 01:37:07;;;;;;;16.33;14.73;;;-0.20;99.90;;;;;;6125666;23;20441;-74
2023/01/18 01:39:36;;;;;;;16.93;15.33;;;-0.30;99.90;;;;;;6137242;23;20405;-74
2023/01/18 01:42:05;;;;;;;16.67;14.93;;;-0.30;99.90;;;;;;6126379;23;20421;-74
2023/01/18 01:44:50;;;;;;;17.13;14.53;;;-0.30;99.90;;;;;;6126322;23;20752;-75
2023/01/18 01:47:37;;;;;;;17.00;14.83;;;-0.30;99.90;;;;;;6125877;23;20444;-74
2023/01/18 01:50:17;;;;;;;16.23;14.53;;;-0.30;99.90;;;;;;6125184;23;20412;-74
2023/01/18 01:52:46;;;;;;;18.27;15.80;;;-0.30;99.90;;;;;;6137285;23;20409;-74
2023/01/18 01:55:22;;;;;;;17.87;16.00;;;-0.30;99.90;;;;;;6137274;23;20398;-74
2023/01/18 01:57:55;;;;;;;16.53;14.83;;;-0.30;99.90;;;;;;6127507;23;20429;-74
2023/01/18 02:00:24;;;;;;;16.60;14.87;;;-0.30;99.90;;;;;;6125950;23;20452;-74
2023/01/18 02:02:56;;;;;;;17.73;14.83;;;-0.30;99.90;;;;;;6125406;23;20417;-74
2023/01/18 02:05:25;;;;;;;17.57;15.43;;;-0.30;99.90;;;;;;6136893;23;20461;-74
2023/01/18 02:07:54;;;;;;;17.70;15.93;;;-0.40;99.90;;;;;;6125248;23;20444;-74
2023/01/18 02:10:23;;;;;;;16.03;14.37;;;-0.40;99.90;;;;;;6137052;23;20401;-74
2023/01/18 02:12:53;;;;;;;15.90;13.47;;;-0.40;99.90;;;;;;6125302;23;20413;-74
2023/01/18 02:15:27;;;;;;;18.40;16.50;;;-0.40;99.90;;;;;;6125293;23;20416;-74
2023/01/18 02:18:16;;;;;;;17.10;14.47;;;-0.40;99.90;;;;;;6125253;23;20437;-74
2023/01/18 02:21:04;;;;;;;17.77;15.97;;;-0.50;99.90;;;;;;6127075;23;20393;-74
2023/01/18 02:24:05;;;;;;;15.90;14.20;;;-0.40;99.90;;;;;;6127330;23;20404;-74
2023/01/18 02:26:59;;;;;;;16.60;14.50;;;-0.40;99.90;;;;;;6136630;23;20444;-74
2023/01/18 02:29:45;;;;;;;16.83;14.80;;;-0.40;99.90;;;;;;6125406;23;20420;-74
2023/01/18 02:32:25;;;;;;;17.93;15.20;;;-0.50;99.90;;;;;;6136561;23;20385;-74
2023/01/18 02:35:04;;;;;;;16.77;14.97;;;-0.50;99.90;;;;;;6125216;23;20460;-74
2023/01/18 02:37:42;;;;;;;19.63;15.70;;;-0.50;99.90;;;;;;6136791;23;20476;-74
2023/01/18 02:40:19;;;;;;;18.60;15.77;;;-0.50;99.90;;;;;;6126685;23;20875;-74
2023/01/18 02:48:32;;;;;;;16.47;14.37;;;-0.50;99.90;;;;;;6136329;23;20432;-74
2023/01/18 02:51:00;;;;;;;19.37;15.10;;;-0.40;99.90;;;;;;6136297;23;20718;-74
2023/01/18 02:53:30;;;;;;;17.53;15.83;;;-0.50;99.90;;;;;;6136970;23;20394;-74
2023/01/18 02:56:03;;;;;;;16.97;15.40;;;-0.50;99.90;;;;;;6124819;23;20499;-74
2023/01/18 02:58:35;;;;;;;15.73;14.13;;;-0.50;99.90;;;;;;6124732;23;20412;-74
2023/01/18 03:01:07;;;;;;;17.57;15.77;;;-0.60;99.90;;;;;;6124953;23;20418;-74
2023/01/18 03:03:37;;;;;;;17.30;15.60;;;-0.60;99.90;;;;;;6125015;23;20413;-74
2023/01/18 03:06:08;;;;;;;20.03;15.93;;;-0.60;99.90;;;;;;6136014;23;20476;-74
2023/01/18 03:08:42;;;;;;;17.20;15.50;;;-0.60;99.90;;;;;;6124937;23;20469;-74
2023/01/18 03:11:18;;;;;;;16.70;15.10;;;-0.60;99.90;;;;;;6136642;23;20383;-74
2023/01/18 03:14:01;;;;;;;17.33;15.70;;;-0.60;99.90;;;;;;6136712;23;20385;-74
2023/01/18 03:16:40;;;;;;;17.87;16.07;;;-0.60;99.90;;;;;;6124724;23;20445;-74
2023/01/18 03:22:02;;;;;;;18.13;15.80;;;-0.60;99.90;;;;;;6124831;23;20460;-74
2023/01/18 03:24:30;;;;;;;18.50;16.50;;;-0.60;99.90;;;;;;6125144;23;20417;-74
2023/01/18 03:35:26;;;;;;;18.20;16.30;;;-0.70;99.90;;;;;;6125025;23;20414;-74
2023/01/18 03:37:56;;;;;;;18.50;16.63;;;-0.70;99.90;;;;;;6136767;23;20417;-74
2023/01/18 03:40:28;;;;;;;18.43;16.53;;;-0.70;99.90;;;;;;6136387;23;20837;-74
2023/01/18 03:43:03;;;;;;;18.40;16.50;;;-0.70;99.90;;;;;;6136498;23;20848;-74
2023/01/18 03:45:36;;;;;;;18.67;16.87;;;-0.70;99.90;;;;;;6126131;23;20471;-74
2023/01/18 03:48:08;;;;;;;19.03;17.23;;;-0.70;99.90;;;;;;6126481;23;20430;-74
2023/01/18 03:50:48;;;;;;;21.40;16.93;;;-0.70;99.90;;;;;;6136995;23;20469;-73
2023/01/18 03:53:22;;;;;;;16.87;15.17;;;-0.70;99.90;;;;;;6124924;23;20406;-74
2023/01/18 03:55:55;;;;;;;19.40;17.40;;;-0.70;99.90;;;;;;6124638;23;20920;-73
2023/01/18 03:58:31;;;;;;;19.70;17.60;;;-0.70;99.90;;;;;;6136751;23;20378;-74
2023/01/18 04:01:02;;;;;;;18.40;16.60;;;-0.70;99.90;;;;;;6135992;23;20393;-73
2023/01/18 04:03:33;;;;;;;19.00;17.00;;;-0.70;99.90;;;;;;6136318;23;20465;-73
2023/01/18 04:06:04;;;;;;;18.97;17.03;;;-0.70;99.90;;;;;;6124492;23;20540;-74
2023/01/18 04:08:32;;;;;;;19.83;17.83;;;-0.70;99.90;;;;;;6125005;23;20429;-73
2023/01/18 04:11:00;;;;;;;19.87;17.87;;;-0.70;99.90;;;;;;6138395;23;20704;-73
2023/01/18 04:13:28;;;;;;;21.40;19.27;;;-0.70;99.90;;;;;;6126358;23;20885;-73
2023/01/18 04:15:56;;;;;;;20.87;18.80;;;-0.70;99.90;;;;;;6128220;23;20409;-73
2023/01/18 04:18:24;;;;;;;20.80;17.57;;;-0.70;99.90;;;;;;6138109;23;20393;-73
2023/01/18 04:20:55;;;;;;;22.87;19.27;;;-0.70;99.90;;;;;;6126387;23;20803;-74
2023/01/18 04:23:23;;;;;;;19.43;16.50;;;-0.80;99.90;;;;;;6138006;23;20390;-73
2023/01/18 04:25:51;;;;;;;21.10;19.10;;;-0.80;99.90;;;;;;6126458;23;20512;-73
2023/01/18 04:28:25;;;;;;;20.37;18.27;;;-0.80;99.90;;;;;;6126132;23;20429;-73
2023/01/18 04:30:54;;;;;;;21.67;19.57;;;-0.80;99.90;;;;;;6138682;23;20386;-73
2023/01/18 04:33:25;;;;;;;19.90;17.87;;;-0.80;99.90;;;;;;6137820;23;20406;-73
2023/01/18 04:35:55;;;;;;;19.07;17.07;;;-0.80;99.90;;;;;;6137561;23;20420;-73
2023/01/18 04:38:23;;;;;;;19.20;17.20;;;-0.80;99.90;;;;;;6137442;23;20405;-73
2023/01/18 04:40:51;;;;;;;23.37;18.77;;;-0.80;99.90;;;;;;6137374;23;20402;-73
2023/01/18 04:43:19;;;;;;;20.13;18.23;;;-0.80;99.90;;;;;;6126104;23;20423;-73
2023/01/18 04:45:54;;;;;;;22.30;20.07;;;-0.80;99.90;;;;;;6127495;23;20410;-73
2023/01/18 04:48:22;;;;;;;22.70;19.73;;;-0.80;99.90;;;;;;6127847;23;20435;-73
2023/01/18 04:50:51;;;;;;;22.90;20.60;;;-0.80;99.90;;;;;;6137745;23;20452;-73
2023/01/18 04:53:21;;;;;;;22.33;20.10;;;-0.80;99.90;;;;;;6126061;23;20804;-73
2023/01/18 04:55:49;;;;;;;22.50;20.23;;;-0.90;99.90;;;;;;6138018;23;20417;-73
2023/01/18 04:58:18;;;;;;;22.50;20.20;;;-0.90;99.90;;;;;;6137359;23;20513;-73
2023/01/18 05:00:46;;;;;;;22.13;19.90;;;-0.90;99.90;;;;;;6137296;23;20468;-73
2023/01/18 05:03:14;;;;;;;21.10;19.10;;;-0.90;99.90;;;;;;6137205;23;20405;-73
2023/01/18 05:05:43;;;;;;;22.93;20.63;;;-0.90;99.90;;;;;;6137478;23;20476;-73
2023/01/18 05:08:11;;;;;;;22.93;20.53;;;-0.90;99.90;;;;;;6137071;23;20436;-73
2023/01/18 05:10:40;;;;;;;22.73;20.43;;;-0.90;99.90;;;;;;6125769;23;20417;-73
2023/01/18 05:13:08;;;;;;;23.23;20.93;;;-0.90;99.90;;;;;;6137089;23;20418;-73
2023/01/18 05:15:36;;;;;;;23.27;20.23;;;-0.90;99.90;;;;;;6137407;23;20485;-73
2023/01/18 05:18:05;;;;;;;23.73;21.13;;;-0.90;99.90;;;;;;6137408;23;20398;-73
2023/01/18 05:20:34;;;;;;;25.70;21.40;;;-0.90;99.90;;;;;;6136690;23;20429;-73
2023/01/18 05:23:09;;;;;;;20.67;18.57;;;-0.90;99.90;;;;;;6137309;23;20406;-73
2023/01/18 05:25:38;;;;;;;23.20;21.00;;;-0.90;99.90;;;;;;6125595;23;20865;-73
2023/01/18 05:28:09;;;;;;;22.90;20.70;;;-0.90;99.90;;;;;;6127335;23;20468;-73
2023/01/18 05:30:39;;;;;;;21.47;19.23;;;-0.90;99.90;;;;;;6125684;23;20409;-73
2023/01/18 05:33:08;;;;;;;22.07;19.90;;;-0.90;99.90;;;;;;6136852;23;20401;-73
2023/01/18 05:35:36;;;;;;;21.30;19.10;;;-0.90;99.90;;;;;;6136870;23;20413;-73
2023/01/18 05:38:04;;;;;;;21.97;19.77;;;-0.90;99.90;;;;;;6137165;23;20401;-73
2023/01/18 05:40:33;;;;;;;21.93;19.83;;;-0.90;99.90;;;;;;6125425;23;20921;-73
2023/01/18 05:43:01;;;;;;;22.67;20.37;;;-0.90;99.90;;;;;;6136846;23;20406;-73
2023/01/18 05:45:30;;;;;;;25.73;23.13;;;-0.90;99.90;;;;;;6130577;23;20420;-73
2023/01/18 05:47:58;;;;;;;25.37;22.77;;;-0.90;99.90;;;;;;6125347;23;20536;-73
2023/01/18 05:50:26;;;;;;;22.33;20.13;;;-0.90;99.90;;;;;;6125465;23;20518;-73
2023/01/18 05:52:56;;;;;;;24.87;22.37;;;-1.00;99.90;;;;;;6125404;23;20787;-73
2023/01/18 05:55:25;;;;;;;24.40;22.10;;;-1.00;99.90;;;;;;6137318;23;20393;-73
2023/01/18 05:57:53;;;;;;;23.67;21.43;;;-1.00;99.90;;;;;;6136822;23;20488;-73
2023/01/18 06:00:22;;;;;;;24.60;22.00;;;-1.00;99.90;;;;;;6136901;23;20732;-73
2023/01/18 06:02:52;;;;;;;23.23;20.90;;;-1.00;99.90;;;;;;6136697;23;20406;-73
2023/01/18 06:05:21;;;;;;;23.00;21.00;;;-1.00;99.90;;;;;;6125966;23;20911;-73
2023/01/18 06:07:49;;;;;;;23.63;21.23;;;-1.00;99.90;;;;;;6127236;23;20444;-73
2023/01/18 06:10:18;;;;;;;24.83;22.30;;;-1.00;99.90;;;;;;6136705;23;20444;-73
2023/01/18 06:12:46;;;;;;;24.30;21.80;;;-1.00;99.90;;;;;;6126740;23;20493;-73
2023/01/18 06:15:14;;;;;;;23.90;21.40;;;-1.00;99.90;;;;;;6125177;23;20413;-73
2023/01/18 06:17:44;;;;;;;24.37;22.07;;;-1.00;99.90;;;;;;6136481;23;20432;-73
2023/01/18 06:20:14;;;;;;;25.77;23.20;;;-1.00;99.90;;;;;;6125337;23;20411;-73
2023/01/18 06:22:44;;;;;;;23.87;21.43;;;-1.00;99.90;;;;;;6136467;23;20398;-73
2023/01/18 06:25:12;;;;;;;23.37;21.07;;;-1.00;99.90;;;;;;6136333;23;20402;-74
2023/01/18 06:27:41;;;;;;;27.63;24.73;;;-1.10;99.90;;;;;;6136261;23;20473;-74
2023/01/18 06:30:10;;;;;;;25.47;22.77;;;-1.10;99.90;;;;;;6136716;23;20405;-74
2023/01/18 06:32:38;;;;;;;23.73;21.40;;;-1.10;99.90;;;;;;6124619;23;20431;-74
2023/01/18 06:35:07;;;;;;;24.97;22.27;;;-1.10;99.90;;;;;;6125154;23;20413;-74
2023/01/18 06:37:37;;;;;;;23.97;21.47;;;-1.10;99.90;;;;;;6136545;23;20425;-74
2023/01/18 06:40:06;;;;;;;23.60;21.20;;;-1.10;99.90;;;;;;6124975;23;20414;-74
2023/01/18 06:42:34;;;;;;;25.93;23.03;;;-1.10;99.90;;;;;;6124988;23;20410;-74
2023/01/18 06:45:02;;;;;;;25.40;22.90;;;-1.10;99.90;;;;;;6136234;23;20493;-74
2023/01/18 06:47:30;;;;;;;24.57;22.00;;;-1.20;99.90;;;;;;6124975;23;20437;-74
2023/01/18 06:49:58;;;;;;;24.77;22.37;;;-1.20;99.90;;;;;;6136162;23;20437;-74
2023/01/18 06:52:26;;;;;;;24.13;21.70;;;-1.20;99.90;;;;;;6136483;23;20780;-73
2023/01/18 06:54:56;;;;;;;24.37;21.87;;;-1.20;99.90;;;;;;6136972;23;20401;-74
2023/01/18 06:57:24;;;;;;;22.60;20.33;;;-1.20;99.90;;;;;;6136189;23;20437;-74
2023/01/18 06:59:53;;;;;;;24.00;21.57;;;-1.20;99.90;;;;;;6124874;23;20504;-74
2023/01/18 07:02:21;;;;;;;25.03;22.43;;;-1.20;99.90;;;;;;6136853;23;20404;-74
2023/01/18 07:04:49;;;;;;;23.50;21.10;;;-1.30;99.90;;;;;;6136145;23;20406;-74
2023/01/18 07:07:18;;;;;;;24.00;21.17;;;-1.20;99.90;;;;;;6124981;23;20440;-73
2023/01/18 07:09:46;;;;;;;29.90;26.53;;;-1.30;99.90;;;;;;6123465;23;20927;-74
2023/01/18 07:12:15;;;;;;;28.10;24.20;;;-1.30;99.90;;;;;;6135966;23;20401;-73
2023/01/18 07:14:43;;;;;;;26.20;22.90;;;-1.30;99.90;;;;;;6135742;23;20481;-73
2023/01/18 07:17:11;;;;;;;34.57;27.40;;;-1.30;99.90;;;;;;6124591;23;20440;-73
2023/01/18 07:19:39;;;;;;;26.13;23.43;;;-1.30;99.90;;;;;;6135656;23;20400;-74
2023/01/18 07:22:07;;;;;;;25.43;22.80;;;-1.30;99.90;;;;;;6124351;23;20418;-74
2023/01/18 07:24:36;;;;;;;25.70;23.00;;;-1.30;99.90;;;;;;6135802;23;20484;-74
2023/01/18 07:27:04;;;;;;;26.67;23.10;;;-1.30;99.90;;;;;;6135702;23;20424;-74
2023/01/18 07:29:34;;;;;;;26.73;24.00;;;-1.30;99.90;;;;;;6124218;23;20816;-74
2023/01/18 07:32:02;;;;;;;27.33;23.50;;;-1.30;99.90;;;;;;6124322;23;20421;-74
2023/01/18 07:34:30;;;;;;;25.93;23.13;;;-1.40;99.90;;;;;;6125763;23;20974;-74
2023/01/18 07:37:00;;;;;;;27.70;24.70;;;-1.40;99.90;;;;;;6135523;23;20522;-74
2023/01/18 07:39:28;;;;;;;27.00;24.13;;;-1.40;99.90;;;;;;6135608;23;20453;-74
2023/01/18 07:41:56;;;;;;;26.13;23.40;;;-1.40;99.90;;;;;;6124518;23;20460;-74
2023/01/18 07:44:25;;;;;;;26.87;24.23;;;-1.40;99.90;;;;;;6136763;23;20413;-74
2023/01/18 07:46:54;;;;;;;30.10;23.70;;;-1.40;99.90;;;;;;6137794;23;20437;-73
2023/01/18 07:49:23;;;;;;;27.83;25.10;;;-1.40;99.90;;;;;;6137476;23;20824;-74
2023/01/18 07:51:51;;;;;;;27.13;24.37;;;-1.20;99.90;;;;;;6137651;23;20397;-73
2023/01/18 07:54:19;;;;;;;27.50;24.10;;;-1.40;99.90;;;;;;6137528;23;20412;-74
2023/01/18 07:56:47;;;;;;;26.27;23.57;;;-1.40;99.90;;;;;;6126048;23;20436;-74
2023/01/18 07:59:16;;;;;;;26.60;23.80;;;-1.40;99.90;;;;;;6137377;23;20405;-74
2023/01/18 08:01:44;;;;;;;32.77;25.17;;;-1.40;99.90;;;;;;6137306;23;20870;-74
2023/01/18 08:04:13;;;;;;;26.93;24.13;;;-1.40;99.90;;;;;;6126306;23;20452;-74
2023/01/18 08:06:41;;;;;;;26.97;24.17;;;-1.40;99.90;;;;;;6137197;23;20420;-74
2023/01/18 08:09:09;;;;;;;27.43;23.27;;;-1.40;99.90;;;;;;6135575;23;20456;-74
2023/01/18 08:11:37;;;;;;;26.00;22.87;;;-1.40;99.90;;;;;;6135858;23;20609;-73
2023/01/18 08:14:06;;;;;;;29.00;25.87;;;-1.40;99.90;;;;;;6124447;23;20507;-74
2023/01/18 08:16:34;;;;;;;26.43;23.70;;;-1.40;99.90;;;;;;6124342;23;20433;-74
2023/01/18 08:19:02;;;;;;;26.73;23.93;;;-1.40;99.90;;;;;;6135853;23;20393;-74
2023/01/18 08:21:32;;;;;;;28.27;25.20;;;-1.40;99.90;;;;;;6135835;23;20404;-73
2023/01/18 08:24:00;;;;;;;26.37;23.13;;;-1.40;99.90;;;;;;6136129;23;20397;-73
2023/01/18 08:26:28;;;;;;;26.13;23.33;;;-1.30;99.90;;;;;;6135714;23;20426;-74
2023/01/18 08:28:57;;;;;;;26.73;23.93;;;-1.30;99.90;;;;;;6135970;23;20429;-74
2023/01/18 08:31:26;;;;;;;29.17;25.23;;;-1.30;99.90;;;;;;6135813;23;20394;-74
2023/01/18 08:33:54;;;;;;;27.60;24.80;;;-1.30;99.90;;;;;;6136808;23;20405;-73
2023/01/18 08:36:24;;;;;;;29.83;26.63;;;-1.30;99.90;;;;;;6137430;23;20500;-74
2023/01/18 08:38:55;;;;;;;30.63;26.97;;;-1.30;99.90;;;;;;6126126;23;20750;-74
2023/01/18 08:41:27;;;;;;;28.80;25.80;;;-1.30;99.90;;;;;;6128075;23;20393;-74
2023/01/18 08:43:56;;;;;;;29.57;25.83;;;-1.30;99.90;;;;;;6137761;23;20465;-74
2023/01/18 08:46:25;;;;;;;29.17;26.07;;;-1.30;99.90;;;;;;6137401;23;20460;-74
2023/01/18 08:48:55;;;;;;;31.43;26.50;;;-1.30;99.90;;;;;;6125955;23;20815;-74
2023/01/18 08:51:24;;;;;;;30.23;27.00;;;-1.30;99.90;;;;;;6128743;23;20955;-74
2023/01/18 08:53:56;;;;;;;33.13;29.97;;;-1.30;99.90;;;;;;6137227;23;20414;-74
2023/01/18 08:56:25;;;;;;;32.43;27.43;;;-1.20;99.90;;;;;;6125317;23;20437;-74
2023/01/18 08:58:53;;;;;;;30.73;27.13;;;-1.20;99.90;;;;;;6125810;23;20488;-74
2023/01/18 09:01:22;;;;;;;29.33;25.80;;;-1.20;99.90;;;;;;6125930;23;20528;-74
2023/01/18 09:03:54;;;;;;;29.83;26.63;;;-1.20;99.90;;;;;;6126108;23;20964;-74
2023/01/18 09:06:22;;;;;;;30.73;26.80;;;-1.20;99.90;;;;;;6137515;23;20473;-74
2023/01/18 09:08:50;;;;;;;30.10;25.90;;;-1.10;99.90;;;;;;6125672;23;20424;-74
2023/01/18 09:11:20;;;;;;;31.87;27.90;;;-1.10;99.90;;;;;;6137189;23;20401;-74
2023/01/18 09:13:48;;;;;;;30.97;27.70;;;-1.10;99.90;;;;;;6137152;23;20870;-74
2023/01/18 09:16:28;;;;;;;30.73;26.67;;;-1.00;99.90;;;;;;6137473;23;20746;-74
2023/01/18 09:18:57;;;;;;;28.87;26.00;;;-1.00;99.90;;;;;;6137150;23;20401;-74
2023/01/18 09:21:26;;;;;;;29.90;26.70;;;-1.00;99.90;;;;;;6126097;23;20414;-74
2023/01/18 09:23:55;;;;;;;28.57;25.57;;;-1.00;99.90;;;;;;6125741;23;20422;-74
2023/01/18 09:26:24;;;;;;;29.03;26.13;;;-0.90;99.90;;;;;;6127022;23;20979;-74
2023/01/18 09:28:53;;;;;;;29.57;26.40;;;-0.90;99.90;;;;;;6136962;23;20460;-74
2023/01/18 09:31:24;;;;;;;29.00;26.03;;;-0.90;99.90;;;;;;6136908;23;20425;-74
2023/01/18 09:33:53;;;;;;;29.33;26.27;;;-0.80;99.90;;;;;;6123228;23;20421;-74
2023/01/18 09:36:25;;;;;;;30.63;26.43;;;-0.80;99.90;;;;;;6124267;23;20443;-74
2023/01/18 09:38:54;;;;;;;29.93;25.83;;;-0.80;99.90;;;;;;6136152;23;20417;-74
2023/01/18 09:41:31;;;;;;;28.47;25.50;;;-0.70;99.90;;;;;;6124967;23;20461;-74
2023/01/18 09:44:07;;;;;;;29.63;26.57;;;-0.70;99.90;;;;;;6135781;23;20384;-74
2023/01/18 09:46:39;;;;;;;28.33;25.50;;;-0.70;99.90;;;;;;6124364;23;21011;-74
2023/01/18 09:49:16;;;;;;;26.50;23.90;;;-0.70;99.90;;;;;;6126507;23;20400;-74
2023/01/18 09:51:57;;;;;;;29.70;26.60;;;-0.60;99.90;;;;;;6124714;23;20503;-74
2023/01/18 09:54:38;;;;;;;28.50;25.43;;;-0.60;99.90;;;;;;6127093;23;20408;-74
2023/01/18 09:57:16;;;;;;;26.80;24.00;;;-0.50;99.90;;;;;;6126515;23;20425;-74
2023/01/18 09:59:51;;;;;;;29.27;26.37;;;-0.50;99.90;;;;;;6136776;23;20901;-74
2023/01/18 10:02:22;;;;;;;28.70;25.80;;;-0.50;99.90;;;;;;6136605;23;20389;-74
2023/01/18 10:04:55;;;;;;;27.43;24.60;;;-0.50;99.90;;;;;;6125011;23;20437;-74
2023/01/18 10:07:27;;;;;;;27.17;24.50;;;-0.40;99.90;;;;;;6136014;23;20417;-74
2023/01/18 10:09:58;;;;;;;26.50;23.63;;;-0.40;99.90;;;;;;6136435;23;20429;-74
2023/01/18 10:12:37;;;;;;;27.63;24.87;;;-0.40;99.90;;;;;;6125026;23;20508;-74
2023/01/18 10:15:12;;;;;;;27.67;24.87;;;-0.30;99.90;;;;;;6136366;23;20390;-74
2023/01/18 10:17:42;;;;;;;27.63;24.70;;;-0.30;99.90;;;;;;6136338;23;20413;-74
2023/01/18 10:20:15;;;;;;;31.57;28.37;;;-0.30;99.90;;;;;;6126965;23;20405;-74
2023/01/18 10:22:50;;;;;;;23.00;20.60;;;-0.20;99.90;;;;;;6125865;23;20429;-74
2023/01/18 10:25:30;;;;;;;26.10;23.30;;;-0.20;99.90;;;;;;6136779;23;20393;-74
2023/01/18 10:28:22;;;;;;;24.60;22.00;;;-0.10;99.90;;;;;;6124943;23;20437;-74
2023/01/18 10:31:02;;;;;;;24.37;21.87;;;-0.10;99.90;;;;;;6125121;23;20468;-74
2023/01/18 10:33:35;;;;;;;25.17;22.60;;;-0.10;99.90;;;;;;6136511;23;20461;-74
2023/01/18 10:36:07;;;;;;;24.57;22.13;;;0.00;99.90;;;;;;6126975;23;20821;-74
2023/01/18 10:38:40;;;;;;;25.53;22.70;;;0.00;99.90;;;;;;6127157;23;20399;-74
2023/01/18 10:41:18;;;;;;;28.53;23.80;;;0.00;99.90;;;;;;6124886;23;20492;-74
2023/01/18 10:43:48;;;;;;;24.70;22.07;;;0.10;99.90;;;;;;6136943;23;20822;-74
2023/01/18 10:46:18;;;;;;;26.43;23.87;;;0.10;99.90;;;;;;6136528;23;20432;-74
2023/01/18 10:48:49;;;;;;;26.10;23.50;;;0.10;99.90;;;;;;6136708;23;20459;-74
2023/01/18 10:51:36;;;;;;;26.17;23.50;;;0.20;99.90;;;;;;6125341;23;20438;-75
2023/01/18 10:54:23;;;;;;;26.23;23.53;;;0.20;99.90;;;;;;6136760;23;20412;-74
2023/01/18 10:57:01;;;;;;;24.50;21.90;;;0.30;99.90;;;;;;6136157;23;20421;-74
2023/01/18 10:59:36;;;;;;;26.03;23.30;;;0.30;99.90;;;;;;6137099;23;20412;-74
2023/01/18 11:02:05;;;;;;;24.77;22.07;;;0.30;99.90;;;;;;6125109;23;20952;-74
2023/01/18 11:04:34;;;;;;;24.03;21.70;;;0.40;99.90;;;;;;6125035;23;20424;-74
2023/01/18 11:07:04;;;;;;;24.37;21.77;;;0.40;99.90;;;;;;6124980;23;20441;-74
2023/01/18 11:09:53;;;;;;;20.10;18.00;;;0.40;99.90;;;;;;6125035;23;20411;-75
2023/01/18 11:12:36;;;;;;;27.70;23.30;;;0.50;99.90;;;;;;6136572;23;20370;-75
2023/01/18 11:15:27;;;;;;;25.40;22.73;;;0.50;99.90;;;;;;6124815;23;20892;-74
2023/01/18 11:18:10;;;;;;;24.80;22.17;;;0.60;99.90;;;;;;6124812;23;20433;-75
2023/01/18 11:20:49;;;;;;;25.53;22.73;;;0.60;99.90;;;;;;6138603;23;20841;-75
2023/01/18 11:23:20;;;;;;;23.90;21.60;;;0.70;99.90;;;;;;6126979;23;20413;-75
2023/01/18 11:25:54;;;;;;;23.87;21.40;;;0.80;99.90;;;;;;6138555;23;20389;-74
2023/01/18 11:28:26;;;;;;;24.07;21.57;;;0.80;99.90;;;;;;6139317;23;20384;-74
2023/01/18 11:31:00;;;;;;;25.23;21.43;;;1.90;99.90;;;;;;6138327;23;20425;-74
2023/01/18 11:33:29;;;;;;;22.33;20.23;;;0.90;99.90;;;;;;6126869;23;20413;-74
2023/01/18 11:36:00;;;;;;;20.83;18.63;;;1.00;99.90;;;;;;6126881;23;20900;-75
2023/01/18 11:38:31;;;;;;;21.70;19.40;;;1.00;99.90;;;;;;6127070;23;20925;-74
2023/01/18 11:41:04;;;;;;;23.13;19.20;;;1.10;99.90;;;;;;6126159;23;20432;-73
2023/01/18 11:43:35;;;;;;;21.67;19.37;;;1.10;99.90;;;;;;6126524;23;20409;-74
2023/01/18 11:46:18;;;;;;;20.87;18.60;;;1.20;99.90;;;;;;6129482;23;20447;-74
2023/01/18 11:48:51;;;;;;;20.40;18.30;;;1.20;99.90;;;;;;6126564;23;20414;-75
2023/01/18 11:51:25;;;;;;;19.10;17.20;;;1.30;99.90;;;;;;6138277;23;20994;-74
2023/01/18 11:54:03;;;;;;;20.33;18.33;;;1.30;99.90;;;;;;6128651;23;20394;-74
2023/01/18 11:56:41;;;;;;;19.30;17.23;;;1.30;99.90;;;;;;6137633;23;20442;-74
2023/01/18 11:59:15;;;;;;;21.40;19.27;;;1.40;99.90;;;;;;6128048;23;20420;-74
2023/01/18 12:01:59;;;;;;;19.40;17.47;;;1.50;99.90;;;;;;6126640;23;20407;-75
2023/01/18 12:04:41;;;;;;;20.90;18.70;;;1.50;99.90;;;;;;6138599;23;20419;-75
2023/01/18 12:07:21;;;;;;;19.30;17.40;;;1.60;99.90;;;;;;6128398;23;20434;-75
2023/01/18 12:09:52;;;;;;;19.60;17.70;;;1.60;99.90;;;;;;6137820;23;20394;-75
2023/01/18 12:12:36;;;;;;;20.33;18.43;;;1.70;99.90;;;;;;6126460;23;20436;-75
2023/01/18 12:15:22;;;;;;;20.67;17.63;;;1.70;99.90;;;;;;6126603;23;20429;-76
2023/01/18 12:18:06;;;;;;;19.77;17.97;;;1.70;99.90;;;;;;6137597;23;20423;-75
2023/01/18 12:20:51;;;;;;;19.83;17.80;;;1.80;99.90;;;;;;6126530;23;20743;-75
2023/01/18 12:23:43;;;;;;;19.10;17.10;;;1.80;99.90;;;;;;6126427;23;20420;-75
2023/01/18 12:26:26;;;;;;;19.57;16.07;;;1.90;99.90;;;;;;6126471;23;20445;-75
2023/01/18 12:29:11;;;;;;;19.00;17.10;;;1.90;99.90;;;;;;6126280;23;20483;-75
2023/01/18 12:31:53;;;;;;;17.27;15.50;;;2.00;99.90;;;;;;6126285;23;20439;-76
2023/01/18 12:34:26;;;;;;;18.07;16.17;;;2.10;99.90;;;;;;6138255;23;20384;-75
2023/01/18 12:37:13;;;;;;;18.37;16.43;;;2.10;99.90;;;;;;6137913;23;20481;-75
2023/01/18 12:39:53;;;;;;;18.00;16.13;;;2.10;99.90;;;;;;6138005;23;20388;-75
2023/01/18 12:42:34;;;;;;;17.97;16.27;;;2.20;99.90;;;;;;6126032;23;20489;-75
2023/01/18 12:45:17;;;;;;;17.70;15.83;;;2.20;99.90;;;;;;6137622;23;20897;-75
2023/01/18 12:47:52;;;;;;;17.00;15.30;;;2.30;99.90;;;;;;6127532;23;20511;-75
2023/01/18 12:50:26;;;;;;;16.90;14.13;;;2.30;99.90;;;;;;6126086;23;20420;-75
2023/01/18 12:53:01;;;;;;;20.03;17.00;;;2.30;99.90;;;;;;6126139;23;20427;-75
2023/01/18 12:55:31;;;;;;;16.10;14.40;;;2.40;99.90;;;;;;6127997;23;20477;-75
2023/01/18 12:58:01;;;;;;;15.77;13.23;;;2.40;99.90;;;;;;6127928;23;20513;-75
2023/01/18 13:00:34;;;;;;;17.10;15.50;;;2.40;99.90;;;;;;6126165;23;20414;-75
2023/01/18 13:03:09;;;;;;;15.23;13.73;;;2.50;99.90;;;;;;6126443;23;20956;-74
2023/01/18 13:05:51;;;;;;;14.90;13.37;;;2.50;99.90;;;;;;6126701;23;20891;-75
2023/01/18 13:08:38;;;;;;;16.10;14.40;;;2.60;99.90;;;;;;6139192;23;20394;-75
2023/01/18 13:11:10;;;;;;;16.90;14.50;;;2.60;99.90;;;;;;6137373;23;20418;-75
2023/01/18 13:13:40;;;;;;;16.93;15.27;;;2.70;99.90;;;;;;6126104;23;20459;-75
2023/01/18 13:16:19;;;;;;;15.70;14.10;;;2.70;99.90;;;;;;6125614;23;20556;-75
2023/01/18 13:18:55;;;;;;;16.90;15.20;;;2.70;99.90;;;;;;6126281;23;20423;-75
2023/01/18 13:21:37;;;;;;;14.17;12.77;;;2.80;99.90;;;;;;6137831;23;20838;-75
2023/01/18 13:24:19;;;;;;;16.50;14.80;;;2.80;99.90;;;;;;6126203;23;20503;-75
2023/01/18 13:26:47;;;;;;;15.87;14.27;;;2.80;99.90;;;;;;6125773;23;20524;-75
2023/01/18 13:29:22;;;;;;;16.33;14.73;;;2.90;99.90;;;;;;6125812;23;20467;-75
2023/01/18 13:31:51;;;;;;;16.40;14.63;;;2.90;99.90;;;;;;6125915;23;20522;-75